sensor_id;sensor_type;location;lat;lon;timestamp;pressure;altitude;pressure_sealevel;temperature;humidity
23223;BME280;11780;13.904;100.620;2023-05-19T00:02:11;100830.78;;;33.11;53.47
23223;BME280;11780;13.904;100.620;2023-05-19T00:04:42;100827.16;;;33.10;53.50
23223;BME280;11780;13.904;100.620;2023-05-19T00:07:17;100830.09;;;33.14;53.41
23223;BME280;11780;13.904;100.620;2023-05-19T00:09:51;100832.53;;;33.16;53.59
23223;BME280;11780;13.904;100.620;2023-05-19T00:12:22;100832.53;;;33.16;53.56
23223;BME280;11780;13.904;100.620;2023-05-19T00:14:52;100840.50;;;33.17;53.36
23223;BME280;11780;13.904;100.620;2023-05-19T00:17:23;100837.81;;;33.08;53.44
23223;BME280;11780;13.904;100.620;2023-05-19T00:19:53;100852.28;;;33.14;53.65
23223;BME280;11780;13.904;100.620;2023-05-19T00:22:24;100848.19;;;33.12;53.53
23223;BME280;11780;13.904;100.620;2023-05-19T00:24:54;100852.13;;;33.10;53.77
23223;BME280;11780;13.904;100.620;2023-05-19T00:27:30;100853.75;;;33.12;53.89
23223;BME280;11780;13.904;100.620;2023-05-19T00:30:00;100860.25;;;33.16;53.74
23223;BME280;11780;13.904;100.620;2023-05-19T00:32:31;100861.06;;;33.16;54.02
23223;BME280;11780;13.904;100.620;2023-05-19T00:35:01;100860.25;;;33.16;53.76
23223;BME280;11780;13.904;100.620;2023-05-19T00:37:32;100864.16;;;33.15;53.91
23223;BME280;11780;13.904;100.620;2023-05-19T00:40:02;100865.78;;;33.16;53.75
23223;BME280;11780;13.904;100.620;2023-05-19T00:42:34;100866.94;;;33.15;54.00
23223;BME280;11780;13.904;100.620;2023-05-19T00:45:05;100863.84;;;33.16;54.04
23223;BME280;11780;13.904;100.620;2023-05-19T00:47:36;100874.56;;;33.18;53.77
23223;BME280;11780;13.904;100.620;2023-05-19T00:50:07;100876.19;;;33.19;53.79
23223;BME280;11780;13.904;100.620;2023-05-19T00:52:37;100875.84;;;33.20;53.73
23223;BME280;11780;13.904;100.620;2023-05-19T00:55:08;100875.84;;;33.20;53.66
23223;BME280;11780;13.904;100.620;2023-05-19T00:57:39;100884.53;;;33.19;53.71
23223;BME280;11780;13.904;100.620;2023-05-19T01:00:10;100885.31;;;33.19;53.82
23223;BME280;11780;13.904;100.620;2023-05-19T01:02:41;100889.41;;;33.22;53.69
23223;BME280;11780;13.904;100.620;2023-05-19T01:05:12;100884.84;;;33.17;53.77
23223;BME280;11780;13.904;100.620;2023-05-19T01:07:43;100890.84;;;33.19;53.92
23223;BME280;11780;13.904;100.620;2023-05-19T01:10:13;100893.31;;;33.21;54.00
23223;BME280;11780;13.904;100.620;2023-05-19T01:12:44;100889.72;;;33.20;54.30
23223;BME280;11780;13.904;100.620;2023-05-19T01:15:15;100881.75;;;33.19;54.28
23223;BME280;11780;13.904;100.620;2023-05-19T01:18:07;100888.91;;;33.20;54.42
23223;BME280;11780;13.904;100.620;2023-05-19T01:20:52;100892.16;;;33.22;54.44
23223;BME280;11780;13.904;100.620;2023-05-19T01:23:33;100894.94;;;33.22;54.29
23223;BME280;11780;13.904;100.620;2023-05-19T01:31:48;100903.38;;;33.25;54.45
23223;BME280;11780;13.904;100.620;2023-05-19T01:34:20;100898.63;;;33.26;54.49
23223;BME280;11780;13.904;100.620;2023-05-19T01:36:54;100909.06;;;33.29;54.47
23223;BME280;11780;13.904;100.620;2023-05-19T01:39:25;100905.81;;;33.27;54.51
23223;BME280;11780;13.904;100.620;2023-05-19T01:41:57;100903.88;;;33.28;54.67
23223;BME280;11780;13.904;100.620;2023-05-19T01:44:28;100900.75;;;33.29;54.34
23223;BME280;11780;13.904;100.620;2023-05-19T01:46:59;100900.75;;;33.29;54.34
23223;BME280;11780;13.904;100.620;2023-05-19T01:49:32;100902.38;;;33.30;54.46
23223;BME280;11780;13.904;100.620;2023-05-19T01:52:03;100904.34;;;33.30;54.64
23223;BME280;11780;13.904;100.620;2023-05-19T01:54:34;100905.50;;;33.29;54.65
23223;BME280;11780;13.904;100.620;2023-05-19T01:57:18;100908.41;;;33.32;54.44
23223;BME280;11780;13.904;100.620;2023-05-19T02:03:12;100907.59;;;33.32;54.79
23223;BME280;11780;13.904;100.620;2023-05-19T02:06:04;100908.75;;;33.31;54.48
23223;BME280;11780;13.904;100.620;2023-05-19T02:08:42;100906.75;;;33.31;54.70
23223;BME280;11780;13.904;100.620;2023-05-19T02:14:27;100912.78;;;33.33;55.08
23223;BME280;11780;13.904;100.620;2023-05-19T02:17:03;100908.41;;;33.32;55.06
23223;BME280;11780;13.904;100.620;2023-05-19T02:19:37;100911.97;;;33.33;54.78
23223;BME280;11780;13.904;100.620;2023-05-19T02:22:08;100911.47;;;33.39;54.41
23223;BME280;11780;13.904;100.620;2023-05-19T02:24:39;100907.88;;;33.39;54.64
23223;BME280;11780;13.904;100.620;2023-05-19T02:27:10;100908.72;;;33.39;54.64
23223;BME280;11780;13.904;100.620;2023-05-19T02:29:42;100912.28;;;33.40;54.57
23223;BME280;11780;13.904;100.620;2023-05-19T02:32:13;100915.41;;;33.38;54.94
23223;BME280;11780;13.904;100.620;2023-05-19T02:34:46;100905.94;;;33.39;54.96
23223;BME280;11780;13.904;100.620;2023-05-19T02:37:16;100909.03;;;33.38;55.19
23223;BME280;11780;13.904;100.620;2023-05-19T02:39:47;100915.84;;;33.40;55.28
23223;BME280;11780;13.904;100.620;2023-05-19T02:42:17;100917.81;;;33.40;55.03
23223;BME280;11780;13.904;100.620;2023-05-19T02:44:48;100908.34;;;33.41;54.92
23223;BME280;11780;13.904;100.620;2023-05-19T02:47:18;100904.75;;;33.40;55.10
23223;BME280;11780;13.904;100.620;2023-05-19T02:49:49;100899.22;;;33.40;54.58
23223;BME280;11780;13.904;100.620;2023-05-19T02:52:20;100906.88;;;33.44;54.63
23223;BME280;11780;13.904;100.620;2023-05-19T02:54:51;100904.91;;;33.44;54.47
23223;BME280;11780;13.904;100.620;2023-05-19T02:57:22;100904.09;;;33.44;54.62
23223;BME280;11780;13.904;100.620;2023-05-19T02:59:53;100908.84;;;33.43;54.42
23223;BME280;11780;13.904;100.620;2023-05-19T03:02:23;100904.56;;;33.46;54.32
23223;BME280;11780;13.904;100.620;2023-05-19T03:04:54;100908.63;;;33.48;54.74
23223;BME280;11780;13.904;100.620;2023-05-19T03:07:24;100899.97;;;33.50;54.41
23223;BME280;11780;13.904;100.620;2023-05-19T03:09:55;100896.72;;;33.48;54.57
23223;BME280;11780;13.904;100.620;2023-05-19T03:12:26;100906.66;;;33.49;54.29
23223;BME280;11780;13.904;100.620;2023-05-19T03:14:56;100895.59;;;33.49;54.54
23223;BME280;11780;13.904;100.620;2023-05-19T03:17:27;100894.09;;;33.51;54.25
23223;BME280;11780;13.904;100.620;2023-05-19T03:20:02;100887.72;;;33.51;54.23
23223;BME280;11780;13.904;100.620;2023-05-19T03:22:34;100892.47;;;33.50;54.14
23223;BME280;11780;13.904;100.620;2023-05-19T03:25:05;100894.09;;;33.51;54.27
23223;BME280;11780;13.904;100.620;2023-05-19T03:27:35;100881.84;;;33.52;54.15
23223;BME280;11780;13.904;100.620;2023-05-19T03:30:06;100892.94;;;33.52;54.26
23223;BME280;11780;13.904;100.620;2023-05-19T03:32:50;100892.25;;;33.55;54.17
23223;BME280;11780;13.904;100.620;2023-05-19T03:35:22;100904.50;;;33.54;54.21
23223;BME280;11780;13.904;100.620;2023-05-19T03:37:53;100898.16;;;33.54;54.17
23223;BME280;11780;13.904;100.620;2023-05-19T03:40:23;100895.84;;;33.56;54.12
23223;BME280;11780;13.904;100.620;2023-05-19T03:43:01;100891.09;;;33.57;54.04
23223;BME280;11780;13.904;100.620;2023-05-19T03:45:36;100878.50;;;33.59;54.01
23223;BME280;11780;13.904;100.620;2023-05-19T03:48:26;100884.75;;;33.56;54.05
23223;BME280;11780;13.904;100.620;2023-05-19T03:51:15;100878.66;;;33.63;53.84
23223;BME280;11780;13.904;100.620;2023-05-19T03:53:48;100870.78;;;33.65;53.91
23223;BME280;11780;13.904;100.620;2023-05-19T03:56:19;100868.19;;;33.68;53.73
23223;BME280;11780;13.904;100.620;2023-05-19T03:58:51;100864.25;;;33.69;53.76
23223;BME280;11780;13.904;100.620;2023-05-19T04:01:23;100862.63;;;33.68;53.66
23223;BME280;11780;13.904;100.620;2023-05-19T04:03:53;100857.06;;;33.68;53.60
23223;BME280;11780;13.904;100.620;2023-05-19T04:06:24;100857.56;;;33.70;53.51
23223;BME280;11780;13.904;100.620;2023-05-19T04:08:54;100851.66;;;33.72;53.36
23223;BME280;11780;13.904;100.620;2023-05-19T04:11:25;100839.72;;;33.71;53.63
23223;BME280;11780;13.904;100.620;2023-05-19T04:13:57;100839.28;;;33.69;53.35
23223;BME280;11780;13.904;100.620;2023-05-19T04:16:27;100846.09;;;33.72;53.38
23223;BME280;11780;13.904;100.620;2023-05-19T04:18:58;100832.13;;;33.68;53.57
23223;BME280;11780;13.904;100.620;2023-05-19T04:21:28;100831.28;;;33.68;53.45
23223;BME280;11780;13.904;100.620;2023-05-19T04:23:59;100832.13;;;33.68;53.24
23223;BME280;11780;13.904;100.620;2023-05-19T04:26:30;100818.25;;;33.68;53.22
23223;BME280;11780;13.904;100.620;2023-05-19T04:29:03;100820.78;;;33.74;53.29
23223;BME280;11780;13.904;100.620;2023-05-19T04:31:34;100818.97;;;33.78;53.05
23223;BME280;11780;13.904;100.620;2023-05-19T04:34:06;100821.25;;;33.76;52.80
23223;BME280;11780;13.904;100.620;2023-05-19T04:36:40;100821.72;;;33.78;52.99
23223;BME280;11780;13.904;100.620;2023-05-19T04:39:10;100822.88;;;33.77;52.73
23223;BME280;11780;13.904;100.620;2023-05-19T04:41:44;100824.63;;;33.81;52.75
23223;BME280;11780;13.904;100.620;2023-05-19T04:44:14;100822.19;;;33.80;52.68
23223;BME280;11780;13.904;100.620;2023-05-19T04:46:49;100817.34;;;33.77;52.83
23223;BME280;11780;13.904;100.620;2023-05-19T04:49:23;100815.16;;;33.82;52.88
23223;BME280;11780;13.904;100.620;2023-05-19T04:51:53;100815.28;;;33.86;52.48
23223;BME280;11780;13.904;100.620;2023-05-19T04:54:28;100811.69;;;33.85;52.66
23223;BME280;11780;13.904;100.620;2023-05-19T04:56:59;100808.91;;;33.85;52.70
23223;BME280;11780;13.904;100.620;2023-05-19T04:59:31;100800.94;;;33.84;52.79
23223;BME280;11780;13.904;100.620;2023-05-19T05:02:02;100799.31;;;33.83;52.78
23223;BME280;11780;13.904;100.620;2023-05-19T05:04:35;100793.78;;;33.83;52.74
23223;BME280;11780;13.904;100.620;2023-05-19T05:07:06;100792.94;;;33.82;53.00
23223;BME280;11780;13.904;100.620;2023-05-19T05:09:37;100782.69;;;33.83;52.65
23223;BME280;11780;13.904;100.620;2023-05-19T05:12:09;100782.94;;;33.90;52.37
23223;BME280;11780;13.904;100.620;2023-05-19T05:14:40;100779.38;;;33.90;52.00
23223;BME280;11780;13.904;100.620;2023-05-19T05:17:14;100774.75;;;33.94;51.85
23223;BME280;11780;13.904;100.620;2023-05-19T05:19:45;100771.16;;;33.93;51.88
23223;BME280;11780;13.904;100.620;2023-05-19T05:22:16;100765.97;;;33.92;52.04
23223;BME280;11780;13.904;100.620;2023-05-19T05:24:47;100761.69;;;33.94;51.68
23223;BME280;11780;13.904;100.620;2023-05-19T05:27:18;100757.75;;;33.95;51.49
23223;BME280;11780;13.904;100.620;2023-05-19T05:29:49;100751.38;;;33.95;51.57
23223;BME280;11780;13.904;100.620;2023-05-19T05:32:20;100748.59;;;33.95;51.15
23223;BME280;11780;13.904;100.620;2023-05-19T05:34:51;100737.06;;;33.93;51.38
23223;BME280;11780;13.904;100.620;2023-05-19T05:37:24;100735.56;;;33.95;51.39
23223;BME280;11780;13.904;100.620;2023-05-19T05:39:54;100729.19;;;33.95;51.33
23223;BME280;11780;13.904;100.620;2023-05-19T05:42:25;100738.44;;;33.99;51.58
23223;BME280;11780;13.904;100.620;2023-05-19T05:44:56;100721.69;;;33.95;51.64
23223;BME280;11780;13.904;100.620;2023-05-19T05:47:27;100720.53;;;33.96;51.73
23223;BME280;11780;13.904;100.620;2023-05-19T05:49:58;100715.78;;;33.97;52.01
23223;BME280;11780;13.904;100.620;2023-05-19T05:52:29;100711.25;;;34.05;51.77
23223;BME280;11780;13.904;100.620;2023-05-19T05:55:03;100716.34;;;34.03;51.61
23223;BME280;11780;13.904;100.620;2023-05-19T05:57:34;100702.47;;;34.03;51.47
23223;BME280;11780;13.904;100.620;2023-05-19T06:00:05;100698.91;;;34.02;51.23
23223;BME280;11780;13.904;100.620;2023-05-19T06:02:43;100692.41;;;33.98;51.52
23223;BME280;11780;13.904;100.620;2023-05-19T06:05:16;100686.88;;;33.98;51.38
23223;BME280;11780;13.904;100.620;2023-05-19T06:07:49;100689.06;;;34.05;51.17
23223;BME280;11780;13.904;100.620;2023-05-19T06:10:24;100690.69;;;34.06;50.87
23223;BME280;11780;13.904;100.620;2023-05-19T06:12:55;100685.50;;;34.04;51.02
23223;BME280;11780;13.904;100.620;2023-05-19T06:15:25;100678.88;;;34.09;50.83
23223;BME280;11780;13.904;100.620;2023-05-19T06:18:04;100676.13;;;34.09;51.00
23223;BME280;11780;13.904;100.620;2023-05-19T06:20:34;100679.72;;;34.09;51.22
23223;BME280;11780;13.904;100.620;2023-05-19T06:23:05;100666.75;;;34.13;50.96
23223;BME280;11780;13.904;100.620;2023-05-19T06:25:36;100662.00;;;34.14;50.84
23223;BME280;11780;13.904;100.620;2023-05-19T06:28:07;100674.28;;;34.13;50.96
23223;BME280;11780;13.904;100.620;2023-05-19T06:30:38;100648.94;;;34.14;50.65
23223;BME280;11780;13.904;100.620;2023-05-19T06:33:19;100641.28;;;34.11;50.72
23223;BME280;11780;13.904;100.620;2023-05-19T06:35:49;100656.78;;;34.12;50.77
23223;BME280;11780;13.904;100.620;2023-05-19T06:38:20;100651.25;;;34.12;50.72
23223;BME280;11780;13.904;100.620;2023-05-19T06:40:51;100642.13;;;34.12;50.63
23223;BME280;11780;13.904;100.620;2023-05-19T06:43:22;100634.25;;;34.14;50.26
23223;BME280;11780;13.904;100.620;2023-05-19T06:45:56;100629.50;;;34.14;50.45
23223;BME280;11780;13.904;100.620;2023-05-19T06:48:28;100614.13;;;34.17;50.45
23223;BME280;11780;13.904;100.620;2023-05-19T06:50:59;100616.44;;;34.15;50.28
23223;BME280;11780;13.904;100.620;2023-05-19T06:53:32;100610.63;;;34.20;50.64
23223;BME280;11780;13.904;100.620;2023-05-19T06:56:07;100595.84;;;34.16;50.63
23223;BME280;11780;13.904;100.620;2023-05-19T06:58:39;100594.44;;;34.22;50.40
23223;BME280;11780;13.904;100.620;2023-05-19T07:01:10;100592.81;;;34.21;50.43
23223;BME280;11780;13.904;100.620;2023-05-19T07:03:46;100591.66;;;34.22;50.04
23223;BME280;11780;13.904;100.620;2023-05-19T07:06:16;100577.00;;;34.22;50.44
23223;BME280;11780;13.904;100.620;2023-05-19T07:08:47;100575.47;;;34.24;50.26
23223;BME280;11780;13.904;100.620;2023-05-19T07:11:18;100565.06;;;34.21;50.38
23223;BME280;11780;13.904;100.620;2023-05-19T07:13:48;100561.59;;;34.24;50.32
23223;BME280;11780;13.904;100.620;2023-05-19T07:16:25;100571.28;;;34.30;50.15
23223;BME280;11780;13.904;100.620;2023-05-19T07:18:55;100562.25;;;34.34;50.51
23223;BME280;11780;13.904;100.620;2023-05-19T07:21:25;100557.75;;;34.29;50.44
23223;BME280;11780;13.904;100.620;2023-05-19T07:23:57;100557.28;;;34.27;50.37
23223;BME280;11780;13.904;100.620;2023-05-19T07:26:28;100537.06;;;34.26;50.36
23223;BME280;11780;13.904;100.620;2023-05-19T07:28:58;100543.06;;;34.28;50.25
23223;BME280;11780;13.904;100.620;2023-05-19T07:31:29;100550.47;;;34.24;50.42
23223;BME280;11780;13.904;100.620;2023-05-19T07:34:00;100542.25;;;34.28;50.53
23223;BME280;11780;13.904;100.620;2023-05-19T07:36:30;100534.38;;;34.30;50.57
23223;BME280;11780;13.904;100.620;2023-05-19T07:39:00;100535.91;;;34.27;50.56
23223;BME280;11780;13.904;100.620;2023-05-19T07:41:31;100531.28;;;34.31;49.84
23223;BME280;11780;13.904;100.620;2023-05-19T07:44:03;100531.38;;;34.35;50.15
23223;BME280;11780;13.904;100.620;2023-05-19T07:46:36;100521.66;;;34.29;50.06
23223;BME280;11780;13.904;100.620;2023-05-19T07:49:07;100515.78;;;34.30;50.04
23223;BME280;11780;13.904;100.620;2023-05-19T07:51:37;100513.00;;;34.30;49.98
23223;BME280;11780;13.904;100.620;2023-05-19T07:54:08;100511.84;;;34.31;49.84
23223;BME280;11780;13.904;100.620;2023-05-19T07:56:38;100500.72;;;34.31;50.10
23223;BME280;11780;13.904;100.620;2023-05-19T07:59:08;100498.84;;;34.36;49.82
23223;BME280;11780;13.904;100.620;2023-05-19T08:01:39;100502.69;;;34.31;49.94
23223;BME280;11780;13.904;100.620;2023-05-19T08:04:09;100503.50;;;34.31;50.03
23223;BME280;11780;13.904;100.620;2023-05-19T08:06:41;100491.94;;;34.29;49.90
23223;BME280;11780;13.904;100.620;2023-05-19T08:09:13;100487.19;;;34.30;50.01
23223;BME280;11780;13.904;100.620;2023-05-19T08:11:43;100488.00;;;34.30;49.88
23223;BME280;11780;13.904;100.620;2023-05-19T08:14:15;100482.19;;;34.36;49.86
23223;BME280;11780;13.904;100.620;2023-05-19T08:16:46;100484.06;;;34.31;50.01
23223;BME280;11780;13.904;100.620;2023-05-19T08:19:16;100480.56;;;34.35;49.84
23223;BME280;11780;13.904;100.620;2023-05-19T08:21:47;100486.94;;;34.35;49.77
23223;BME280;11780;13.904;100.620;2023-05-19T08:24:18;100480.00;;;34.41;49.70
23223;BME280;11780;13.904;100.620;2023-05-19T08:26:48;100481.47;;;34.39;49.89
23223;BME280;11780;13.904;100.620;2023-05-19T08:29:18;100472.00;;;34.40;49.84
23223;BME280;11780;13.904;100.620;2023-05-19T08:31:49;100466.91;;;34.42;50.00
23223;BME280;11780;13.904;100.620;2023-05-19T08:34:21;100469.22;;;34.40;50.08
23223;BME280;11780;13.904;100.620;2023-05-19T08:36:52;100461.81;;;34.44;50.13
23223;BME280;11780;13.904;100.620;2023-05-19T08:39:22;100461.81;;;34.44;50.18
23223;BME280;11780;13.904;100.620;2023-05-19T08:41:56;100459.50;;;34.46;50.34
23223;BME280;11780;13.904;100.620;2023-05-19T08:44:26;100459.50;;;34.46;50.25
23223;BME280;11780;13.904;100.620;2023-05-19T08:47:01;100452.34;;;34.45;50.31
23223;BME280;11780;13.904;100.620;2023-05-19T08:49:35;100449.63;;;34.49;50.15
23223;BME280;11780;13.904;100.620;2023-05-19T08:52:16;100450.88;;;34.51;50.28
23223;BME280;11780;13.904;100.620;2023-05-19T08:54:53;100450.09;;;34.51;50.61
23223;BME280;11780;13.904;100.620;2023-05-19T08:57:30;100453.41;;;34.56;50.39
23223;BME280;11780;13.904;100.620;2023-05-19T09:00:02;100437.47;;;34.53;50.32
23223;BME280;11780;13.904;100.620;2023-05-19T09:02:38;100439.00;;;34.51;50.53
23223;BME280;11780;13.904;100.620;2023-05-19T09:05:26;100431.19;;;34.56;50.31
23223;BME280;11780;13.904;100.620;2023-05-19T09:07:57;100424.03;;;34.55;50.50
23223;BME280;11780;13.904;100.620;2023-05-19T09:10:31;100424.03;;;34.55;50.55
23223;BME280;11780;13.904;100.620;2023-05-19T09:13:02;100420.47;;;34.55;50.59
23223;BME280;11780;13.904;100.620;2023-05-19T09:15:34;100402.72;;;34.59;50.40
23223;BME280;11780;13.904;100.620;2023-05-19T09:18:08;100407.38;;;34.55;50.55
23223;BME280;11780;13.904;100.620;2023-05-19T09:20:43;100397.16;;;34.59;50.46
23223;BME280;11780;13.904;100.620;2023-05-19T09:23:15;100392.69;;;34.55;50.56
23223;BME280;11780;13.904;100.620;2023-05-19T09:25:48;100392.22;;;34.53;50.35
23223;BME280;11780;13.904;100.620;2023-05-19T09:28:23;100390.63;;;34.52;50.61
23223;BME280;11780;13.904;100.620;2023-05-19T09:31:03;100394.63;;;34.54;50.66
23223;BME280;11780;13.904;100.620;2023-05-19T09:33:38;100389.09;;;34.54;50.51
23223;BME280;11780;13.904;100.620;2023-05-19T09:36:12;100387.47;;;34.53;50.67
23223;BME280;11780;13.904;100.620;2023-05-19T09:38:42;100385.16;;;34.55;50.64
23223;BME280;11780;13.904;100.620;2023-05-19T09:41:14;100381.66;;;34.58;50.59
23223;BME280;11780;13.904;100.620;2023-05-19T09:43:53;100380.50;;;34.59;50.50
23223;BME280;11780;13.904;100.620;2023-05-19T09:46:25;100381.22;;;34.56;50.43
23223;BME280;11780;13.904;100.620;2023-05-19T09:48:57;100384.34;;;34.55;50.51
23223;BME280;11780;13.904;100.620;2023-05-19T09:51:27;100373.25;;;34.55;50.42
23223;BME280;11780;13.904;100.620;2023-05-19T09:53:58;100372.09;;;34.56;50.11
23223;BME280;11780;13.904;100.620;2023-05-19T09:56:33;100372.41;;;34.54;50.07
23223;BME280;11780;13.904;100.620;2023-05-19T09:59:05;100375.66;;;34.56;50.35
23223;BME280;11780;13.904;100.620;2023-05-19T10:01:36;100378.69;;;34.51;50.57
23223;BME280;11780;13.904;100.620;2023-05-19T10:04:10;100370.72;;;34.50;50.21
23223;BME280;11780;13.904;100.620;2023-05-19T10:06:42;100382.63;;;34.50;50.45
23223;BME280;11780;13.904;100.620;2023-05-19T10:09:13;100376.72;;;34.52;50.36
23223;BME280;11780;13.904;100.620;2023-05-19T10:11:45;100372.34;;;34.51;50.45
23223;BME280;11780;13.904;100.620;2023-05-19T10:14:18;100377.44;;;34.49;50.25
23223;BME280;11780;13.904;100.620;2023-05-19T10:16:50;100370.72;;;34.50;50.45
23223;BME280;11780;13.904;100.620;2023-05-19T10:19:28;100381.47;;;34.51;50.22
23223;BME280;11780;13.904;100.620;2023-05-19T10:21:58;100382.75;;;34.54;50.35
23223;BME280;11780;13.904;100.620;2023-05-19T10:24:29;100383.53;;;34.54;50.41
23223;BME280;11780;13.904;100.620;2023-05-19T10:27:04;100385.84;;;34.52;50.42
23223;BME280;11780;13.904;100.620;2023-05-19T10:29:38;100389.47;;;34.53;50.34
23223;BME280;11780;13.904;100.620;2023-05-19T10:32:13;100392.69;;;34.55;50.57
23223;BME280;11780;13.904;100.620;2023-05-19T10:40:36;100402.19;;;34.54;50.21
23223;BME280;11780;13.904;100.620;2023-05-19T10:43:18;100401.34;;;34.53;50.28
23223;BME280;11780;13.904;100.620;2023-05-19T10:45:52;100409.22;;;34.51;50.39
23223;BME280;11780;13.904;100.620;2023-05-19T10:48:24;100406.03;;;34.49;50.34
23223;BME280;11780;13.904;100.620;2023-05-19T10:50:55;100410.41;;;34.50;50.37
23223;BME280;11780;13.904;100.620;2023-05-19T10:53:34;100410.41;;;34.50;50.28
23223;BME280;11780;13.904;100.620;2023-05-19T10:56:05;100410.41;;;34.50;50.34
23223;BME280;11780;13.904;100.620;2023-05-19T11:01:19;100415.94;;;34.50;50.37
23223;BME280;11780;13.904;100.620;2023-05-19T11:03:54;100404.41;;;34.48;50.19
23223;BME280;11780;13.904;100.620;2023-05-19T11:06:31;100415.94;;;34.50;50.17
23223;BME280;11780;13.904;100.620;2023-05-19T11:09:12;100413.63;;;34.52;50.17
23223;BME280;11780;13.904;100.620;2023-05-19T11:11:53;100419.19;;;34.52;50.02
23223;BME280;11780;13.904;100.620;2023-05-19T11:14:28;100419.56;;;34.51;50.04
23223;BME280;11780;13.904;100.620;2023-05-19T11:16:59;100417.94;;;34.50;50.10
23223;BME280;11780;13.904;100.620;2023-05-19T11:19:31;100422.69;;;34.49;49.99
23223;BME280;11780;13.904;100.620;2023-05-19T11:22:09;100424.28;;;34.50;50.02
23223;BME280;11780;13.904;100.620;2023-05-19T11:27:25;100431.03;;;34.49;49.81
23223;BME280;11780;13.904;100.620;2023-05-19T11:32:38;100428.66;;;34.51;49.79
23223;BME280;11780;13.904;100.620;2023-05-19T11:35:11;100436.22;;;34.51;49.99
23223;BME280;11780;13.904;100.620;2023-05-19T11:37:44;100431.91;;;34.53;49.71
23223;BME280;11780;13.904;100.620;2023-05-19T11:40:16;100439.78;;;34.51;49.91
23223;BME280;11780;13.904;100.620;2023-05-19T11:42:47;100446.88;;;34.49;49.98
23223;BME280;11780;13.904;100.620;2023-05-19T11:45:23;100442.84;;;34.46;49.88
23223;BME280;11780;13.904;100.620;2023-05-19T11:47:54;100444.47;;;34.47;49.84
23223;BME280;11780;13.904;100.620;2023-05-19T11:50:30;100445.97;;;34.44;49.91
23223;BME280;11780;13.904;100.620;2023-05-19T11:53:01;100453.13;;;34.45;49.78
23223;BME280;11780;13.904;100.620;2023-05-19T11:55:32;100459.50;;;34.46;50.00
23223;BME280;11780;13.904;100.620;2023-05-19T11:58:03;100461.13;;;34.47;50.07
23223;BME280;11780;13.904;100.620;2023-05-19T12:00:38;100465.84;;;34.46;49.87
23223;BME280;11780;13.904;100.620;2023-05-19T12:03:09;100463.44;;;34.45;49.80
23223;BME280;11780;13.904;100.620;2023-05-19T12:05:44;100466.22;;;34.45;49.87
23223;BME280;11780;13.904;100.620;2023-05-19T12:08:16;100476.16;;;34.46;49.76
23223;BME280;11780;13.904;100.620;2023-05-19T12:10:51;100482.19;;;34.48;49.81
23223;BME280;11780;13.904;100.620;2023-05-19T12:13:21;100488.88;;;34.47;49.65
23223;BME280;11780;13.904;100.620;2023-05-19T12:15:52;100487.28;;;34.46;49.56
23223;BME280;11780;13.904;100.620;2023-05-19T12:18:22;100495.69;;;34.50;49.59
23223;BME280;11780;13.904;100.620;2023-05-19T12:20:56;100499.63;;;34.49;49.62
23223;BME280;11780;13.904;100.620;2023-05-19T12:23:27;100510.81;;;34.52;49.44
23223;BME280;11780;13.904;100.620;2023-05-19T12:25:59;100514.50;;;34.56;49.27
23223;BME280;11780;13.904;100.620;2023-05-19T12:28:30;100521.69;;;34.57;49.68
23223;BME280;11780;13.904;100.620;2023-05-19T12:31:01;100517.38;;;34.60;49.57
23223;BME280;11780;13.904;100.620;2023-05-19T12:33:32;100527.59;;;34.56;50.74
23223;BME280;11780;13.904;100.620;2023-05-19T12:36:04;100533.72;;;34.61;51.32
23223;BME280;11780;13.904;100.620;2023-05-19T12:38:36;100538.81;;;34.59;52.18
23223;BME280;11780;13.904;100.620;2023-05-19T12:41:10;100540.44;;;34.60;53.39
23223;BME280;11780;13.904;100.620;2023-05-19T12:43:41;100542.84;;;34.62;54.01
23223;BME280;11780;13.904;100.620;2023-05-19T12:46:12;100547.22;;;34.63;54.58
23223;BME280;11780;13.904;100.620;2023-05-19T12:48:46;100543.66;;;34.63;55.03
23223;BME280;11780;13.904;100.620;2023-05-19T12:51:20;100553.16;;;34.61;55.45
23223;BME280;11780;13.904;100.620;2023-05-19T12:53:50;100561.47;;;34.61;55.19
23223;BME280;11780;13.904;100.620;2023-05-19T12:56:24;100564.34;;;34.65;55.49
23223;BME280;11780;13.904;100.620;2023-05-19T12:58:55;100569.44;;;34.63;55.57
23223;BME280;11780;13.904;100.620;2023-05-19T13:01:28;100564.59;;;34.60;55.53
23223;BME280;11780;13.904;100.620;2023-05-19T13:04:00;100573.75;;;34.60;55.79
23223;BME280;11780;13.904;100.620;2023-05-19T13:06:32;100576.53;;;34.60;55.90
23223;BME280;11780;13.904;100.620;2023-05-19T13:09:03;100587.75;;;34.64;56.11
23223;BME280;11780;13.904;100.620;2023-05-19T13:21:44;100612.41;;;34.53;57.28
23223;BME280;11780;13.904;100.620;2023-05-19T13:24:16;100614.50;;;34.56;57.41
23223;BME280;11780;13.904;100.620;2023-05-19T13:26:46;100619.97;;;34.53;57.54
23223;BME280;11780;13.904;100.620;2023-05-19T13:29:19;100626.22;;;34.50;57.75
23223;BME280;11780;13.904;100.620;2023-05-19T13:31:50;100624.34;;;34.54;57.50
23223;BME280;11780;13.904;100.620;2023-05-19T13:34:20;100640.75;;;34.59;57.60